createdAt,value
2019-03-25T00:01:06.343Z,20.32
2019-03-25T00:03:32.980Z,20.32
2019-03-25T00:05:59.731Z,20.41
2019-03-25T00:08:26.383Z,20.42
2019-03-25T00:10:53.038Z,20.43
2019-03-25T00:13:19.681Z,20.45
2019-03-25T00:15:46.329Z,20.48
2019-03-25T00:18:12.977Z,20.39
2019-03-25T00:20:40.675Z,20.40
2019-03-25T00:23:06.270Z,20.45
2019-03-25T00:25:32.962Z,20.47
2019-03-25T00:27:59.615Z,20.53
2019-03-25T00:30:26.257Z,20.47
2019-03-25T00:32:52.933Z,20.54
2019-03-25T00:35:19.585Z,20.54
2019-03-25T00:37:46.224Z,20.59
2019-03-25T00:40:12.880Z,20.58
2019-03-25T00:42:39.645Z,20.67
2019-03-25T00:45:06.296Z,20.57
2019-03-25T00:47:32.936Z,20.66
2019-03-25T00:49:59.574Z,20.60
2019-03-25T00:52:27.678Z,20.67
2019-03-25T00:54:52.906Z,20.66
2019-03-25T00:57:19.551Z,20.64
2019-03-25T00:59:48.824Z,20.61
2019-03-25T01:02:12.836Z,20.61
2019-03-25T01:04:39.513Z,20.64
2019-03-25T01:07:06.164Z,20.59
2019-03-25T01:09:32.820Z,20.58
2019-03-25T01:11:59.463Z,20.57
2019-03-25T01:14:26.101Z,20.60
2019-03-25T01:16:52.832Z,20.65
2019-03-25T01:19:19.472Z,20.62
2019-03-25T01:21:46.107Z,20.59
2019-03-25T01:24:12.761Z,20.66
2019-03-25T01:26:39.412Z,20.66
2019-03-25T01:29:06.056Z,20.69
2019-03-25T01:31:32.696Z,20.72
2019-03-25T01:33:59.348Z,20.67
2019-03-25T01:36:25.988Z,20.72
2019-03-25T01:38:52.644Z,20.77
2019-03-25T01:41:19.298Z,20.76
2019-03-25T01:43:45.948Z,20.77
2019-03-25T01:46:12.590Z,20.78
2019-03-25T01:48:39.255Z,20.78
2019-03-25T01:51:05.908Z,20.84
2019-03-25T01:53:32.598Z,20.88
2019-03-25T01:55:59.243Z,20.88
2019-03-25T01:58:25.880Z,20.87
2019-03-25T02:00:54.086Z,20.88
2019-03-25T02:03:19.187Z,20.93
2019-03-25T02:05:45.822Z,21.01
2019-03-25T02:08:12.465Z,20.95
2019-03-25T02:10:39.172Z,20.99
2019-03-25T02:13:05.771Z,21.07
2019-03-25T02:15:32.457Z,21.07
2019-03-25T02:17:59.096Z,21.09
2019-03-25T02:20:26.962Z,21.07
2019-03-25T02:22:52.748Z,21.08
2019-03-25T02:25:25.330Z,21.09
2019-03-25T02:27:45.822Z,21.17
2019-03-25T02:30:12.470Z,21.14
2019-03-25T02:32:39.260Z,21.21
2019-03-25T02:35:05.910Z,21.14
2019-03-25T02:37:32.601Z,21.25
2019-03-25T02:39:59.242Z,21.19
2019-03-25T02:42:25.894Z,21.24
2019-03-25T02:44:52.534Z,21.22
2019-03-25T02:47:19.177Z,21.21
2019-03-25T02:49:45.835Z,21.26
2019-03-25T02:52:12.487Z,21.27
2019-03-25T02:54:39.132Z,21.23
2019-03-25T02:57:05.784Z,21.33
2019-03-25T02:59:32.424Z,21.29
2019-03-25T03:01:59.071Z,21.35
2019-03-25T03:04:25.721Z,21.39
2019-03-25T03:06:52.359Z,21.28
2019-03-25T03:09:19.013Z,21.35
2019-03-25T03:11:45.660Z,21.36
2019-03-25T03:14:15.150Z,21.34
2019-03-25T03:16:38.944Z,21.37
2019-03-25T03:19:05.629Z,21.43
2019-03-25T03:21:32.249Z,21.39
2019-03-25T03:23:58.885Z,21.44
2019-03-25T03:26:25.523Z,21.48
2019-03-25T03:28:52.215Z,21.56
2019-03-25T03:31:18.857Z,21.43
2019-03-25T03:33:45.512Z,21.45
2019-03-25T03:36:12.194Z,21.41
2019-03-25T03:38:38.840Z,21.41
2019-03-25T03:41:05.502Z,21.38
2019-03-25T03:43:32.197Z,21.36
2019-03-25T03:45:58.838Z,21.36
2019-03-25T03:48:25.469Z,21.39
2019-03-25T03:50:52.130Z,21.31
2019-03-25T03:53:18.785Z,21.32
2019-03-25T03:55:45.462Z,21.31
2019-03-25T03:58:12.115Z,21.28
2019-03-25T04:00:38.754Z,21.29
2019-03-25T04:03:05.405Z,21.26
2019-03-25T04:05:32.046Z,21.26
2019-03-25T04:07:58.703Z,21.25
2019-03-25T04:10:25.379Z,21.37
2019-03-25T04:12:51.984Z,21.61
2019-03-25T04:15:18.638Z,21.66
2019-03-25T04:17:45.336Z,21.75
2019-03-25T04:20:11.967Z,22.08
2019-03-25T04:22:38.685Z,22.04
2019-03-25T04:25:05.278Z,22.15
2019-03-25T04:27:31.913Z,22.27
2019-03-25T04:29:58.577Z,21.91
2019-03-25T04:32:25.222Z,21.68
2019-03-25T04:34:51.862Z,21.73
2019-03-25T04:37:18.512Z,21.42
2019-03-25T04:39:45.158Z,21.25
2019-03-25T04:42:11.796Z,21.17
2019-03-25T04:44:38.478Z,21.06
2019-03-25T04:47:05.117Z,21.02
2019-03-25T04:49:31.809Z,20.91
2019-03-25T04:51:59.516Z,20.98
2019-03-25T04:54:26.194Z,21.02
2019-03-25T04:56:52.848Z,20.86
2019-03-25T04:59:19.527Z,20.82
2019-03-25T05:01:46.165Z,20.81
2019-03-25T05:04:12.843Z,20.67
2019-03-25T05:06:39.491Z,20.73
2019-03-25T05:09:06.191Z,20.72
2019-03-25T05:11:32.852Z,20.67
2019-03-25T05:13:59.488Z,20.48
2019-03-25T05:16:26.127Z,20.48
2019-03-25T05:18:52.772Z,20.49
2019-03-25T05:21:19.427Z,20.59
2019-03-25T05:23:46.089Z,20.51
2019-03-25T05:26:12.722Z,20.50
2019-03-25T05:28:39.384Z,20.40
2019-03-25T05:31:06.026Z,20.44
2019-03-25T05:33:32.659Z,20.52
2019-03-25T05:35:59.352Z,20.64
2019-03-25T05:38:25.990Z,20.67
2019-03-25T05:40:52.643Z,20.68
2019-03-25T05:43:21.145Z,20.60
2019-03-25T05:45:45.930Z,20.57
2019-03-25T05:48:12.616Z,20.61
2019-03-25T05:50:39.258Z,20.52
2019-03-25T05:53:05.897Z,20.64
2019-03-25T05:55:32.554Z,20.65
2019-03-25T05:57:59.196Z,20.53
2019-03-25T06:00:26.007Z,20.48
2019-03-25T06:02:52.726Z,20.42
2019-03-25T06:05:19.519Z,20.34
2019-03-25T06:07:46.166Z,20.34
2019-03-25T06:10:12.839Z,20.46
2019-03-25T06:12:39.582Z,20.35
2019-03-25T06:15:06.216Z,20.30
2019-03-25T06:17:32.879Z,20.27
2019-03-25T06:19:59.517Z,20.28
2019-03-25T06:22:26.164Z,20.32
2019-03-25T06:24:52.800Z,20.22
2019-03-25T06:27:19.506Z,20.41
2019-03-25T06:29:46.148Z,20.58
2019-03-25T06:32:12.794Z,20.45
2019-03-25T06:34:39.449Z,20.48
2019-03-25T06:37:06.097Z,20.28
2019-03-25T06:39:32.735Z,20.30
2019-03-25T06:41:59.383Z,20.32
2019-03-25T06:44:26.061Z,20.24
2019-03-25T06:46:52.740Z,20.23
2019-03-25T06:49:19.487Z,20.24
2019-03-25T06:51:46.165Z,20.32
2019-03-25T06:54:13.902Z,20.61
2019-03-25T06:56:40.590Z,20.36
2019-03-25T06:59:07.246Z,20.64
2019-03-25T07:01:33.927Z,20.39
2019-03-25T07:04:00.588Z,20.35
2019-03-25T07:06:27.276Z,20.22
2019-03-25T07:08:53.923Z,20.15
2019-03-25T07:11:20.559Z,20.09
2019-03-25T07:13:47.265Z,20.05
2019-03-25T07:16:13.926Z,20.06
2019-03-25T07:18:40.567Z,20.21
2019-03-25T07:21:07.226Z,20.07
2019-03-25T07:23:34.006Z,20.07
2019-03-25T07:26:00.692Z,20.00
2019-03-25T07:28:27.351Z,19.93
2019-03-25T07:30:54.005Z,19.86
2019-03-25T07:33:20.768Z,19.84
2019-03-25T07:35:47.445Z,19.93
2019-03-25T07:38:14.250Z,19.94
2019-03-25T07:40:40.917Z,20.02
2019-03-25T07:43:07.734Z,19.98
2019-03-25T07:45:38.117Z,19.99
2019-03-25T07:48:04.787Z,20.03
2019-03-25T07:50:31.445Z,20.07
2019-03-25T07:52:58.246Z,20.09
2019-03-25T07:55:24.885Z,20.03
2019-03-25T07:57:51.588Z,20.01
2019-03-25T08:00:18.730Z,20.16
2019-03-25T08:02:45.447Z,19.97
2019-03-25T08:05:12.191Z,20.14
2019-03-25T08:07:38.882Z,20.19
2019-03-25T08:10:05.556Z,20.18
2019-03-25T08:12:32.215Z,20.28
2019-03-25T08:14:58.861Z,20.36
2019-03-25T08:17:25.497Z,20.43
2019-03-25T08:19:52.223Z,20.23
2019-03-25T08:22:18.925Z,20.56
2019-03-25T08:24:45.561Z,20.63
2019-03-25T08:27:12.212Z,20.67
2019-03-25T08:29:38.944Z,20.51
2019-03-25T08:32:05.592Z,20.43
2019-03-25T08:34:32.254Z,20.56
2019-03-25T08:36:58.935Z,20.49
2019-03-25T08:39:25.631Z,20.60
2019-03-25T08:41:52.271Z,20.61
2019-03-25T08:44:18.994Z,20.56
2019-03-25T08:46:45.624Z,20.99
2019-03-25T08:49:12.283Z,20.82
2019-03-25T08:51:40.036Z,20.85
2019-03-25T08:54:06.716Z,20.72
2019-03-25T08:56:33.399Z,20.82
2019-03-25T08:59:00.055Z,20.63
2019-03-25T09:01:26.703Z,20.95
2019-03-25T09:03:53.392Z,20.66
2019-03-25T09:06:20.072Z,20.67
2019-03-25T09:08:46.807Z,20.56
2019-03-25T09:11:13.503Z,20.61
2019-03-25T09:13:40.142Z,20.78
2019-03-25T09:16:06.866Z,20.63
2019-03-25T09:18:33.591Z,20.47
2019-03-25T09:21:00.854Z,20.58
2019-03-25T09:23:30.416Z,20.55
2019-03-25T09:25:57.151Z,20.45
2019-03-25T09:28:24.740Z,20.70
2019-03-25T09:30:50.458Z,20.54
2019-03-25T09:33:17.276Z,20.57
2019-03-25T09:35:43.943Z,20.42
2019-03-25T09:38:10.612Z,20.43
2019-03-25T09:40:37.274Z,20.45
2019-03-25T09:43:03.930Z,20.50
2019-03-25T09:45:30.612Z,20.39
2019-03-25T09:47:57.246Z,20.40
2019-03-25T09:50:23.942Z,20.58
2019-03-25T09:52:50.624Z,20.44
2019-03-25T09:55:17.265Z,20.25
2019-03-25T09:57:43.919Z,20.39
2019-03-25T10:00:10.592Z,20.39
2019-03-25T10:02:37.353Z,19.99
2019-03-25T10:05:03.995Z,20.04
2019-03-25T10:07:30.659Z,19.89
2019-03-25T10:09:57.290Z,19.84
2019-03-25T10:12:23.976Z,20.08
2019-03-25T10:14:53.237Z,19.98
2019-03-25T10:17:19.894Z,19.88
2019-03-25T10:19:46.550Z,19.99
2019-03-25T10:22:13.213Z,20.16
2019-03-25T10:24:39.848Z,20.14
2019-03-25T10:27:06.505Z,20.35
2019-03-25T10:29:33.206Z,20.15
2019-03-25T10:32:01.945Z,20.06
2019-03-25T10:34:28.637Z,20.22
2019-03-25T10:36:58.400Z,20.15
2019-03-25T10:39:25.071Z,19.96
2019-03-25T10:41:51.691Z,20.10
2019-03-25T10:44:18.332Z,20.15
2019-03-25T10:46:44.989Z,20.21
2019-03-25T10:49:11.729Z,20.27
2019-03-25T10:51:38.475Z,20.32
2019-03-25T10:54:05.339Z,20.13
2019-03-25T10:56:32.053Z,20.18
2019-03-25T10:58:58.751Z,20.20
2019-03-25T11:01:25.438Z,20.26
2019-03-25T11:03:52.044Z,20.26
2019-03-25T11:06:18.681Z,20.08
2019-03-25T11:08:45.321Z,20.17
2019-03-25T11:11:12.005Z,20.25
2019-03-25T11:13:38.736Z,20.20
2019-03-25T11:16:05.383Z,20.21
2019-03-25T11:18:32.059Z,19.99
2019-03-25T11:20:58.698Z,20.10
2019-03-25T11:23:25.483Z,20.07
2019-03-25T11:25:52.123Z,20.18
2019-03-25T11:28:18.785Z,20.30
2019-03-25T11:30:45.424Z,20.31
2019-03-25T11:33:12.092Z,20.26
2019-03-25T11:35:38.784Z,20.37
2019-03-25T11:38:05.444Z,20.48
2019-03-25T11:40:32.083Z,20.36
2019-03-25T11:42:58.755Z,20.34
2019-03-25T11:45:25.537Z,20.39
2019-03-25T11:47:53.981Z,20.37
2019-03-25T11:50:18.877Z,20.41
2019-03-25T11:52:46.223Z,20.42
2019-03-25T11:55:13.342Z,20.02
2019-03-25T11:57:40.056Z,20.17
2019-03-25T12:00:06.795Z,20.52
2019-03-25T12:02:33.556Z,20.34
2019-03-25T12:05:00.314Z,20.04
2019-03-25T12:07:26.839Z,19.99
2019-03-25T12:09:53.523Z,20.14
2019-03-25T12:12:20.173Z,19.87
2019-03-25T12:14:46.830Z,20.22
2019-03-25T12:17:13.559Z,20.27
2019-03-25T12:19:40.303Z,19.46
2019-03-25T12:22:07.046Z,19.94
2019-03-25T12:24:33.706Z,19.82
2019-03-25T12:27:00.389Z,19.29
2019-03-25T12:29:30.468Z,19.20
2019-03-25T12:31:54.848Z,19.22
2019-03-25T12:34:21.637Z,19.21
2019-03-25T12:36:48.264Z,19.29
2019-03-25T12:39:14.907Z,19.33
2019-03-25T12:41:41.600Z,19.16
2019-03-25T12:44:08.287Z,19.22
2019-03-25T12:46:35.051Z,19.04
2019-03-25T12:49:01.763Z,19.16
2019-03-25T12:51:28.429Z,19.37
2019-03-25T12:53:55.062Z,19.35
2019-03-25T12:56:22.751Z,19.35
2019-03-25T12:58:49.390Z,19.32
2019-03-25T13:01:16.042Z,19.33
2019-03-25T13:03:42.742Z,19.29
2019-03-25T13:06:09.423Z,19.25
2019-03-25T13:08:36.069Z,19.14
2019-03-25T13:11:06.146Z,19.23
2019-03-25T13:13:32.792Z,19.14
2019-03-25T13:15:59.614Z,19.17
2019-03-25T13:18:26.310Z,19.02
2019-03-25T13:20:54.027Z,18.97
2019-03-25T13:23:20.671Z,19.36
2019-03-25T13:25:47.319Z,19.42
2019-03-25T13:28:14.005Z,19.15
2019-03-25T13:30:40.770Z,19.12
2019-03-25T13:33:07.420Z,18.89
2019-03-25T13:35:34.087Z,19.28
2019-03-25T13:38:00.833Z,19.32
2019-03-25T13:40:27.504Z,19.27
2019-03-25T13:42:54.267Z,19.49
2019-03-25T13:45:20.924Z,19.34
2019-03-25T13:47:47.656Z,19.53
2019-03-25T13:50:14.366Z,19.63
2019-03-25T13:52:41.039Z,19.61
2019-03-25T13:55:07.716Z,19.51
2019-03-25T13:57:34.364Z,19.72
2019-03-25T14:00:03.741Z,19.98
2019-03-25T14:02:27.703Z,19.93
2019-03-25T14:04:54.387Z,19.98
2019-03-25T14:07:21.084Z,20.16
2019-03-25T14:09:47.731Z,20.19
2019-03-25T14:12:14.408Z,19.61
2019-03-25T14:14:41.090Z,19.93
2019-03-25T14:17:07.837Z,19.57
2019-03-25T14:19:34.545Z,19.67
2019-03-25T14:22:01.185Z,20.18
2019-03-25T14:24:27.898Z,19.97
2019-03-25T14:26:54.528Z,20.00
2019-03-25T14:29:21.183Z,19.70
2019-03-25T14:31:47.859Z,19.33
2019-03-25T14:34:14.676Z,19.99
2019-03-25T14:36:41.163Z,20.08
2019-03-25T14:39:07.817Z,20.11
2019-03-25T14:41:34.592Z,19.86
2019-03-25T14:44:01.332Z,19.78
2019-03-25T14:46:28.014Z,19.84
2019-03-25T14:48:54.709Z,19.51
2019-03-25T14:51:21.466Z,19.25
2019-03-25T14:53:48.112Z,19.28
2019-03-25T14:56:14.835Z,19.23
2019-03-25T14:58:41.473Z,19.25
2019-03-25T15:01:08.158Z,19.34
2019-03-25T15:03:34.811Z,19.59
2019-03-25T15:06:01.481Z,19.38
2019-03-25T15:08:28.221Z,19.59
2019-03-25T15:10:54.861Z,19.44
2019-03-25T15:13:21.547Z,19.76
2019-03-25T15:15:48.235Z,19.32
2019-03-25T15:18:15.755Z,19.49
2019-03-25T15:20:41.581Z,19.64
2019-03-25T15:23:08.366Z,19.72
2019-03-25T15:25:35.020Z,19.64
2019-03-25T15:28:01.687Z,19.59
2019-03-25T15:30:35.895Z,19.59
2019-03-25T15:32:55.021Z,19.35
2019-03-25T15:35:21.660Z,19.51
2019-03-25T15:37:48.323Z,19.41
2019-03-25T15:40:15.080Z,19.38
2019-03-25T15:42:41.673Z,19.46
2019-03-25T15:45:08.342Z,19.25
2019-03-25T15:47:35.104Z,18.84
2019-03-25T15:50:01.632Z,18.95
2019-03-25T15:52:28.279Z,18.51
2019-03-25T15:54:54.933Z,19.10
2019-03-25T15:57:21.595Z,19.12
2019-03-25T15:59:48.261Z,19.01
2019-03-25T16:02:15.009Z,18.73
2019-03-25T16:04:41.651Z,18.75
2019-03-25T16:07:08.313Z,18.64
2019-03-25T16:09:34.961Z,18.50
2019-03-25T16:12:01.614Z,18.21
2019-03-25T16:14:28.251Z,18.20
2019-03-25T16:16:54.900Z,18.20
2019-03-25T16:19:21.532Z,18.14
2019-03-25T16:21:48.186Z,17.73
2019-03-25T16:24:14.821Z,17.94
2019-03-25T16:26:41.454Z,18.14
2019-03-25T16:29:08.104Z,17.96
2019-03-25T16:31:34.748Z,18.11
2019-03-25T16:34:01.387Z,17.84
2019-03-25T16:36:28.034Z,17.63
2019-03-25T16:38:54.683Z,17.51
2019-03-25T16:41:21.316Z,17.72
2019-03-25T16:43:47.976Z,17.74
2019-03-25T16:46:14.626Z,17.51
2019-03-25T16:48:41.285Z,17.63
2019-03-25T16:51:07.924Z,17.58
2019-03-25T16:53:34.576Z,17.48
2019-03-25T16:56:01.236Z,17.47
2019-03-25T16:58:27.884Z,17.47
2019-03-25T17:00:54.539Z,17.47
2019-03-25T17:03:21.224Z,17.48
2019-03-25T17:05:47.931Z,17.46
2019-03-25T17:08:14.578Z,17.43
2019-03-25T17:10:41.278Z,17.41
2019-03-25T17:13:07.926Z,17.44
2019-03-25T17:15:34.589Z,17.51
2019-03-25T17:18:01.234Z,17.51
2019-03-25T17:20:27.880Z,17.32
2019-03-25T17:22:54.528Z,17.50
2019-03-25T17:25:21.216Z,17.52
2019-03-25T17:27:47.857Z,17.57
2019-03-25T17:30:14.507Z,17.52
2019-03-25T17:32:41.200Z,17.51
2019-03-25T17:35:07.840Z,17.48
2019-03-25T17:37:34.475Z,17.46
2019-03-25T17:40:01.152Z,17.41
2019-03-25T17:42:27.789Z,17.40
2019-03-25T17:44:54.433Z,17.49
2019-03-25T17:47:21.076Z,17.46
2019-03-25T17:49:47.728Z,17.54
2019-03-25T17:52:14.368Z,17.58
2019-03-25T17:54:41.114Z,17.52
2019-03-25T17:57:07.799Z,17.63
2019-03-25T17:59:34.480Z,17.66
2019-03-25T18:02:01.134Z,17.73
2019-03-25T18:04:31.005Z,17.77
2019-03-25T18:06:57.656Z,17.78
2019-03-25T18:09:24.309Z,17.81
2019-03-25T18:11:50.955Z,17.87
2019-03-25T18:14:17.686Z,17.90
2019-03-25T18:16:44.333Z,17.89
2019-03-25T18:19:10.977Z,17.81
2019-03-25T18:21:37.613Z,17.99
2019-03-25T18:24:04.275Z,17.99
2019-03-25T18:26:30.905Z,18.03
2019-03-25T18:28:57.546Z,18.05
2019-03-25T18:31:24.191Z,18.10
2019-03-25T18:33:50.832Z,18.15
2019-03-25T18:36:17.470Z,18.11
2019-03-25T18:38:44.105Z,18.14
2019-03-25T18:41:10.782Z,18.11
2019-03-25T18:43:37.429Z,18.19
2019-03-25T18:46:04.183Z,18.27
2019-03-25T18:48:30.837Z,18.26
2019-03-25T18:50:57.469Z,18.30
2019-03-25T18:53:24.127Z,18.31
2019-03-25T18:55:50.785Z,18.31
2019-03-25T18:58:17.420Z,18.33
2019-03-25T19:00:44.065Z,18.37
2019-03-25T19:03:10.713Z,18.38
2019-03-25T19:05:37.361Z,18.42
2019-03-25T19:08:04.024Z,18.42
2019-03-25T19:10:30.661Z,18.45
2019-03-25T19:12:57.310Z,18.46
2019-03-25T19:15:23.958Z,18.42
2019-03-25T19:17:50.612Z,18.51
2019-03-25T19:20:17.243Z,18.50
2019-03-25T19:22:43.909Z,18.42
2019-03-25T19:25:10.563Z,18.45
2019-03-25T19:27:37.207Z,18.54
2019-03-25T19:30:03.858Z,18.57
2019-03-25T19:32:30.505Z,18.63
2019-03-25T19:34:57.161Z,18.67
2019-03-25T19:37:23.812Z,18.68
2019-03-25T19:39:50.446Z,18.71
2019-03-25T19:42:17.086Z,18.73
2019-03-25T19:44:43.729Z,18.76
2019-03-25T19:47:10.390Z,18.76
2019-03-25T19:49:37.050Z,18.84
2019-03-25T19:52:03.720Z,18.84
2019-03-25T19:54:30.405Z,18.86
2019-03-25T19:56:57.032Z,18.88
2019-03-25T19:59:23.748Z,18.90
2019-03-25T20:01:50.349Z,18.98
2019-03-25T20:04:16.988Z,19.00
2019-03-25T20:06:43.657Z,19.05
2019-03-25T20:09:10.303Z,19.09
2019-03-25T20:11:36.966Z,19.09
2019-03-25T20:14:03.659Z,19.16
2019-03-25T20:16:30.302Z,19.17
2019-03-25T20:18:56.949Z,19.24
2019-03-25T20:21:23.626Z,19.25
2019-03-25T20:23:50.711Z,19.27
2019-03-25T20:26:16.995Z,19.38
2019-03-25T20:28:43.700Z,19.37
2019-03-25T20:31:10.307Z,19.42
2019-03-25T20:33:37.230Z,19.43
2019-03-25T20:36:03.824Z,19.43
2019-03-25T20:38:30.455Z,19.47
2019-03-25T20:40:57.111Z,19.50
2019-03-25T20:43:23.805Z,19.53
2019-03-25T20:45:50.452Z,19.57
2019-03-25T20:48:17.116Z,19.63
2019-03-25T20:50:45.163Z,19.67
2019-03-25T20:53:10.339Z,19.67
2019-03-25T20:55:37.063Z,19.69
2019-03-25T20:58:03.782Z,19.69
2019-03-25T21:00:30.517Z,19.71
2019-03-25T21:02:57.159Z,19.74
2019-03-25T21:05:23.784Z,19.75
2019-03-25T21:07:50.456Z,19.80
2019-03-25T21:10:17.095Z,19.80
2019-03-25T21:12:43.776Z,19.82
2019-03-25T21:15:10.487Z,19.86
2019-03-25T21:17:37.131Z,19.89
2019-03-25T21:20:03.706Z,19.92
2019-03-25T21:22:30.384Z,19.93
2019-03-25T21:24:57.019Z,19.96
2019-03-25T21:27:23.717Z,20.02
2019-03-25T21:29:50.307Z,19.99
2019-03-25T21:32:17.053Z,20.05
2019-03-25T21:34:43.694Z,20.02
2019-03-25T21:37:10.253Z,20.04
2019-03-25T21:39:36.885Z,20.11
2019-03-25T21:42:03.551Z,20.09
2019-03-25T21:44:30.242Z,20.13
2019-03-25T21:46:56.911Z,20.16
2019-03-25T21:49:23.568Z,20.14
2019-03-25T21:51:50.202Z,20.15
2019-03-25T21:54:16.838Z,20.16
2019-03-25T21:56:43.498Z,20.23
2019-03-25T21:59:10.132Z,20.22
2019-03-25T22:01:36.760Z,20.25
2019-03-25T22:04:03.391Z,20.25
2019-03-25T22:06:30.076Z,20.31
2019-03-25T22:08:56.717Z,20.35
2019-03-25T22:11:23.355Z,20.37
2019-03-25T22:13:49.991Z,20.37
2019-03-25T22:16:16.649Z,20.38
2019-03-25T22:18:43.315Z,20.36
2019-03-25T22:21:09.950Z,20.40
2019-03-25T22:23:36.590Z,20.38
2019-03-25T22:26:03.236Z,20.42
2019-03-25T22:28:29.882Z,20.45
2019-03-25T22:30:56.516Z,20.45
2019-03-25T22:33:25.959Z,20.48
2019-03-25T22:35:49.795Z,20.46
2019-03-25T22:38:16.489Z,20.48
2019-03-25T22:40:43.124Z,20.49
2019-03-25T22:43:09.816Z,20.50
2019-03-25T22:45:36.515Z,20.50
2019-03-25T22:48:03.159Z,20.47
2019-03-25T22:50:29.812Z,20.48
2019-03-25T22:52:56.462Z,20.49
2019-03-25T22:55:23.539Z,20.46
2019-03-25T22:57:49.794Z,20.51
2019-03-25T23:00:16.436Z,20.50
2019-03-25T23:02:43.104Z,20.51
2019-03-25T23:05:09.738Z,20.51
2019-03-25T23:07:36.379Z,20.55
2019-03-25T23:10:03.033Z,20.56
2019-03-25T23:12:29.716Z,20.55
2019-03-25T23:14:56.360Z,20.61
2019-03-25T23:17:23.004Z,20.58
2019-03-25T23:19:49.644Z,20.60
2019-03-25T23:22:16.281Z,20.60
2019-03-25T23:24:42.926Z,20.60
2019-03-25T23:27:09.567Z,20.61
2019-03-25T23:29:36.204Z,20.58
2019-03-25T23:32:02.859Z,20.63
2019-03-25T23:34:29.504Z,20.64
2019-03-25T23:36:56.164Z,20.63
2019-03-25T23:39:25.070Z,20.60
2019-03-25T23:41:49.449Z,20.69
2019-03-25T23:44:16.104Z,20.68
2019-03-25T23:46:42.754Z,20.70
2019-03-25T23:49:09.446Z,20.67
2019-03-25T23:51:36.082Z,20.71
2019-03-25T23:54:02.831Z,20.65
2019-03-25T23:56:29.479Z,20.69
2019-03-25T23:58:56.161Z,20.73
